sensor_id;sensor_type;location;lat;lon;timestamp;P1;durP1;ratioP1;P2;durP2;ratioP2
48014;SDS011;33780;51.034;7.120;2023-03-01T00:00:53;6.80;;;2.47;;
48014;SDS011;33780;51.034;7.120;2023-03-01T00:03:18;4.45;;;2.05;;
48014;SDS011;33780;51.034;7.120;2023-03-01T00:05:44;4.38;;;2.20;;
48014;SDS011;33780;51.034;7.120;2023-03-01T00:08:12;4.28;;;1.95;;
48014;SDS011;33780;51.034;7.120;2023-03-01T00:10:38;4.82;;;2.17;;
48014;SDS011;33780;51.034;7.120;2023-03-01T00:13:03;4.38;;;2.13;;
48014;SDS011;33780;51.034;7.120;2023-03-01T00:15:30;4.47;;;2.13;;
48014;SDS011;33780;51.034;7.120;2023-03-01T00:17:56;4.57;;;2.05;;
48014;SDS011;33780;51.034;7.120;2023-03-01T00:20:21;3.55;;;1.67;;
48014;SDS011;33780;51.034;7.120;2023-03-01T00:22:47;4.30;;;2.25;;
48014;SDS011;33780;51.034;7.120;2023-03-01T00:25:12;4.05;;;1.88;;
48014;SDS011;33780;51.034;7.120;2023-03-01T00:27:37;5.65;;;2.30;;
48014;SDS011;33780;51.034;7.120;2023-03-01T00:30:03;4.13;;;2.10;;
48014;SDS011;33780;51.034;7.120;2023-03-01T00:32:28;5.97;;;2.40;;
48014;SDS011;33780;51.034;7.120;2023-03-01T00:34:54;6.40;;;2.30;;
48014;SDS011;33780;51.034;7.120;2023-03-01T00:37:22;3.95;;;2.05;;
48014;SDS011;33780;51.034;7.120;2023-03-01T00:39:48;5.22;;;2.15;;
48014;SDS011;33780;51.034;7.120;2023-03-01T00:42:14;5.40;;;2.22;;
48014;SDS011;33780;51.034;7.120;2023-03-01T00:44:39;5.20;;;2.33;;
48014;SDS011;33780;51.034;7.120;2023-03-01T00:47:05;4.85;;;2.35;;
48014;SDS011;33780;51.034;7.120;2023-03-01T00:49:30;6.28;;;2.25;;
48014;SDS011;33780;51.034;7.120;2023-03-01T00:51:55;7.50;;;2.20;;
48014;SDS011;33780;51.034;7.120;2023-03-01T00:54:21;5.45;;;2.22;;
48014;SDS011;33780;51.034;7.120;2023-03-01T00:56:46;4.07;;;1.98;;
48014;SDS011;33780;51.034;7.120;2023-03-01T00:59:11;5.32;;;2.33;;
48014;SDS011;33780;51.034;7.120;2023-03-01T01:01:36;4.10;;;2.10;;
48014;SDS011;33780;51.034;7.120;2023-03-01T01:04:03;4.53;;;2.15;;
48014;SDS011;33780;51.034;7.120;2023-03-01T01:06:35;4.40;;;2.45;;
48014;SDS011;33780;51.034;7.120;2023-03-01T01:09:02;4.80;;;2.00;;
48014;SDS011;33780;51.034;7.120;2023-03-01T01:11:30;4.15;;;2.20;;
48014;SDS011;33780;51.034;7.120;2023-03-01T01:13:55;4.70;;;2.00;;
48014;SDS011;33780;51.034;7.120;2023-03-01T01:16:22;5.07;;;2.40;;
48014;SDS011;33780;51.034;7.120;2023-03-01T01:18:49;5.43;;;2.53;;
48014;SDS011;33780;51.034;7.120;2023-03-01T01:21:16;5.63;;;2.30;;
48014;SDS011;33780;51.034;7.120;2023-03-01T01:23:44;6.25;;;2.40;;
48014;SDS011;33780;51.034;7.120;2023-03-01T01:26:12;4.20;;;2.17;;
48014;SDS011;33780;51.034;7.120;2023-03-01T01:28:39;4.85;;;1.92;;
48014;SDS011;33780;51.034;7.120;2023-03-01T01:31:04;5.22;;;2.38;;
48014;SDS011;33780;51.034;7.120;2023-03-01T01:33:30;3.55;;;2.05;;
48014;SDS011;33780;51.034;7.120;2023-03-01T01:35:56;5.25;;;2.13;;
48014;SDS011;33780;51.034;7.120;2023-03-01T01:38:21;4.32;;;2.08;;
48014;SDS011;33780;51.034;7.120;2023-03-01T01:40:47;4.30;;;2.08;;
48014;SDS011;33780;51.034;7.120;2023-03-01T01:43:27;5.85;;;2.42;;
48014;SDS011;33780;51.034;7.120;2023-03-01T01:45:59;5.28;;;2.20;;
48014;SDS011;33780;51.034;7.120;2023-03-01T01:48:51;4.60;;;2.42;;
48014;SDS011;33780;51.034;7.120;2023-03-01T01:51:20;4.82;;;2.40;;
48014;SDS011;33780;51.034;7.120;2023-03-01T01:53:52;6.03;;;2.20;;
48014;SDS011;33780;51.034;7.120;2023-03-01T01:56:22;3.72;;;1.75;;
48014;SDS011;33780;51.034;7.120;2023-03-01T01:58:49;4.88;;;2.30;;
48014;SDS011;33780;51.034;7.120;2023-03-01T02:01:16;4.90;;;2.60;;
48014;SDS011;33780;51.034;7.120;2023-03-01T02:03:42;4.68;;;2.53;;
48014;SDS011;33780;51.034;7.120;2023-03-01T02:06:18;4.97;;;2.00;;
48014;SDS011;33780;51.034;7.120;2023-03-01T02:08:48;3.72;;;1.85;;
48014;SDS011;33780;51.034;7.120;2023-03-01T02:11:16;6.50;;;2.80;;
48014;SDS011;33780;51.034;7.120;2023-03-01T02:13:43;5.13;;;2.10;;
48014;SDS011;33780;51.034;7.120;2023-03-01T02:16:13;4.45;;;2.15;;
48014;SDS011;33780;51.034;7.120;2023-03-01T02:18:40;5.55;;;2.13;;
48014;SDS011;33780;51.034;7.120;2023-03-01T02:24:01;5.03;;;2.58;;
48014;SDS011;33780;51.034;7.120;2023-03-01T02:26:42;4.57;;;1.98;;
48014;SDS011;33780;51.034;7.120;2023-03-01T02:29:12;6.25;;;2.35;;
48014;SDS011;33780;51.034;7.120;2023-03-01T02:31:37;4.72;;;2.00;;
48014;SDS011;33780;51.034;7.120;2023-03-01T02:34:14;3.50;;;1.77;;
48014;SDS011;33780;51.034;7.120;2023-03-01T02:36:49;6.60;;;2.35;;
48014;SDS011;33780;51.034;7.120;2023-03-01T02:39:26;3.55;;;1.80;;
48014;SDS011;33780;51.034;7.120;2023-03-01T02:41:56;4.50;;;2.15;;
48014;SDS011;33780;51.034;7.120;2023-03-01T02:44:22;5.60;;;2.67;;
48014;SDS011;33780;51.034;7.120;2023-03-01T02:46:49;7.70;;;2.53;;
48014;SDS011;33780;51.034;7.120;2023-03-01T02:49:18;5.93;;;2.53;;
48014;SDS011;33780;51.034;7.120;2023-03-01T02:51:48;4.63;;;2.38;;
48014;SDS011;33780;51.034;7.120;2023-03-01T02:54:20;4.40;;;2.08;;
48014;SDS011;33780;51.034;7.120;2023-03-01T02:56:54;5.85;;;2.58;;
48014;SDS011;33780;51.034;7.120;2023-03-01T02:59:22;7.15;;;2.50;;
48014;SDS011;33780;51.034;7.120;2023-03-01T03:01:51;4.72;;;2.53;;
48014;SDS011;33780;51.034;7.120;2023-03-01T03:04:17;4.65;;;2.22;;
48014;SDS011;33780;51.034;7.120;2023-03-01T03:06:44;4.90;;;2.45;;
48014;SDS011;33780;51.034;7.120;2023-03-01T03:09:10;4.50;;;2.35;;
48014;SDS011;33780;51.034;7.120;2023-03-01T03:11:36;5.97;;;2.47;;
48014;SDS011;33780;51.034;7.120;2023-03-01T03:14:04;5.18;;;2.33;;
48014;SDS011;33780;51.034;7.120;2023-03-01T03:16:30;4.95;;;2.45;;
48014;SDS011;33780;51.034;7.120;2023-03-01T03:18:55;5.72;;;2.40;;
48014;SDS011;33780;51.034;7.120;2023-03-01T03:21:29;4.90;;;2.60;;
48014;SDS011;33780;51.034;7.120;2023-03-01T03:23:55;4.55;;;2.30;;
48014;SDS011;33780;51.034;7.120;2023-03-01T03:26:20;5.70;;;2.60;;
48014;SDS011;33780;51.034;7.120;2023-03-01T03:28:45;5.90;;;2.33;;
48014;SDS011;33780;51.034;7.120;2023-03-01T03:31:11;3.95;;;2.15;;
48014;SDS011;33780;51.034;7.120;2023-03-01T03:33:36;4.15;;;2.47;;
48014;SDS011;33780;51.034;7.120;2023-03-01T03:36:02;6.10;;;2.42;;
48014;SDS011;33780;51.034;7.120;2023-03-01T03:38:28;6.13;;;2.55;;
48014;SDS011;33780;51.034;7.120;2023-03-01T03:41:01;5.97;;;2.45;;
48014;SDS011;33780;51.034;7.120;2023-03-01T03:43:29;5.40;;;2.28;;
48014;SDS011;33780;51.034;7.120;2023-03-01T03:45:56;4.90;;;2.53;;
48014;SDS011;33780;51.034;7.120;2023-03-01T03:48:24;6.30;;;2.75;;
48014;SDS011;33780;51.034;7.120;2023-03-01T03:50:51;9.15;;;3.35;;
48014;SDS011;33780;51.034;7.120;2023-03-01T03:53:18;5.15;;;2.30;;
48014;SDS011;33780;51.034;7.120;2023-03-01T03:55:44;4.30;;;2.20;;
48014;SDS011;33780;51.034;7.120;2023-03-01T03:58:10;6.05;;;2.70;;
48014;SDS011;33780;51.034;7.120;2023-03-01T04:00:40;4.22;;;2.20;;
48014;SDS011;33780;51.034;7.120;2023-03-01T04:03:07;5.22;;;2.40;;
48014;SDS011;33780;51.034;7.120;2023-03-01T04:05:33;4.78;;;2.33;;
48014;SDS011;33780;51.034;7.120;2023-03-01T04:08:00;4.60;;;2.30;;
48014;SDS011;33780;51.034;7.120;2023-03-01T04:10:33;4.13;;;2.20;;
48014;SDS011;33780;51.034;7.120;2023-03-01T04:13:01;6.00;;;2.85;;
48014;SDS011;33780;51.034;7.120;2023-03-01T04:15:27;7.53;;;2.67;;
48014;SDS011;33780;51.034;7.120;2023-03-01T04:17:53;10.82;;;3.08;;
48014;SDS011;33780;51.034;7.120;2023-03-01T04:20:23;5.95;;;2.47;;
48014;SDS011;33780;51.034;7.120;2023-03-01T04:22:56;5.18;;;2.45;;
48014;SDS011;33780;51.034;7.120;2023-03-01T04:25:24;5.38;;;2.60;;
48014;SDS011;33780;51.034;7.120;2023-03-01T04:27:50;6.20;;;2.78;;
48014;SDS011;33780;51.034;7.120;2023-03-01T04:30:15;7.13;;;2.90;;
48014;SDS011;33780;51.034;7.120;2023-03-01T04:32:40;6.47;;;2.80;;
48014;SDS011;33780;51.034;7.120;2023-03-01T04:35:06;5.45;;;2.58;;
48014;SDS011;33780;51.034;7.120;2023-03-01T04:37:32;6.47;;;2.83;;
48014;SDS011;33780;51.034;7.120;2023-03-01T04:39:57;4.90;;;2.70;;
48014;SDS011;33780;51.034;7.120;2023-03-01T04:42:23;5.15;;;2.50;;
48014;SDS011;33780;51.034;7.120;2023-03-01T04:44:48;4.90;;;2.30;;
48014;SDS011;33780;51.034;7.120;2023-03-01T04:47:16;4.25;;;2.58;;
48014;SDS011;33780;51.034;7.120;2023-03-01T04:49:41;5.53;;;2.47;;
48014;SDS011;33780;51.034;7.120;2023-03-01T04:52:06;6.20;;;3.03;;
48014;SDS011;33780;51.034;7.120;2023-03-01T04:54:32;5.68;;;2.60;;
48014;SDS011;33780;51.034;7.120;2023-03-01T04:56:58;6.10;;;2.45;;
48014;SDS011;33780;51.034;7.120;2023-03-01T04:59:24;8.25;;;3.00;;
48014;SDS011;33780;51.034;7.120;2023-03-01T05:01:50;5.13;;;2.63;;
48014;SDS011;33780;51.034;7.120;2023-03-01T05:04:16;6.60;;;2.67;;
48014;SDS011;33780;51.034;7.120;2023-03-01T05:06:41;4.40;;;2.30;;
48014;SDS011;33780;51.034;7.120;2023-03-01T05:09:07;6.60;;;2.95;;
48014;SDS011;33780;51.034;7.120;2023-03-01T05:11:32;5.10;;;2.20;;
48014;SDS011;33780;51.034;7.120;2023-03-01T05:14:01;5.40;;;2.58;;
48014;SDS011;33780;51.034;7.120;2023-03-01T05:16:26;4.78;;;2.55;;
48014;SDS011;33780;51.034;7.120;2023-03-01T05:18:52;5.95;;;2.65;;
48014;SDS011;33780;51.034;7.120;2023-03-01T05:21:17;5.20;;;2.55;;
48014;SDS011;33780;51.034;7.120;2023-03-01T05:23:43;6.18;;;2.90;;
48014;SDS011;33780;51.034;7.120;2023-03-01T05:26:09;5.88;;;2.58;;
48014;SDS011;33780;51.034;7.120;2023-03-01T05:28:43;5.60;;;2.65;;
48014;SDS011;33780;51.034;7.120;2023-03-01T05:31:09;6.03;;;2.80;;
48014;SDS011;33780;51.034;7.120;2023-03-01T05:33:38;6.28;;;2.60;;
48014;SDS011;33780;51.034;7.120;2023-03-01T05:36:05;5.80;;;2.65;;
48014;SDS011;33780;51.034;7.120;2023-03-01T05:38:37;5.53;;;2.70;;
48014;SDS011;33780;51.034;7.120;2023-03-01T05:41:02;5.78;;;2.92;;
48014;SDS011;33780;51.034;7.120;2023-03-01T05:43:30;5.20;;;2.40;;
48014;SDS011;33780;51.034;7.120;2023-03-01T05:45:58;5.90;;;2.85;;
48014;SDS011;33780;51.034;7.120;2023-03-01T05:48:24;6.63;;;2.97;;
48014;SDS011;33780;51.034;7.120;2023-03-01T05:50:50;7.10;;;2.50;;
48014;SDS011;33780;51.034;7.120;2023-03-01T05:53:16;5.72;;;2.95;;
48014;SDS011;33780;51.034;7.120;2023-03-01T05:55:46;8.05;;;3.03;;
48014;SDS011;33780;51.034;7.120;2023-03-01T05:58:13;5.63;;;2.58;;
48014;SDS011;33780;51.034;7.120;2023-03-01T06:00:41;5.55;;;2.45;;
48014;SDS011;33780;51.034;7.120;2023-03-01T06:03:09;6.50;;;2.83;;
48014;SDS011;33780;51.034;7.120;2023-03-01T06:05:39;6.55;;;2.70;;
48014;SDS011;33780;51.034;7.120;2023-03-01T06:08:08;6.75;;;2.88;;
48014;SDS011;33780;51.034;7.120;2023-03-01T06:10:38;6.18;;;3.10;;
48014;SDS011;33780;51.034;7.120;2023-03-01T06:13:07;5.00;;;2.45;;
48014;SDS011;33780;51.034;7.120;2023-03-01T06:15:32;6.50;;;2.67;;
48014;SDS011;33780;51.034;7.120;2023-03-01T06:17:58;6.15;;;2.58;;
48014;SDS011;33780;51.034;7.120;2023-03-01T06:20:24;7.93;;;2.83;;
48014;SDS011;33780;51.034;7.120;2023-03-01T06:22:52;5.57;;;2.83;;
48014;SDS011;33780;51.034;7.120;2023-03-01T06:25:19;6.93;;;2.72;;
48014;SDS011;33780;51.034;7.120;2023-03-01T06:27:52;5.72;;;2.72;;
48014;SDS011;33780;51.034;7.120;2023-03-01T06:30:18;6.38;;;2.78;;
48014;SDS011;33780;51.034;7.120;2023-03-01T06:32:45;8.10;;;3.25;;
48014;SDS011;33780;51.034;7.120;2023-03-01T06:35:11;8.15;;;3.28;;
48014;SDS011;33780;51.034;7.120;2023-03-01T06:37:38;7.07;;;3.35;;
48014;SDS011;33780;51.034;7.120;2023-03-01T06:40:05;6.03;;;3.08;;
48014;SDS011;33780;51.034;7.120;2023-03-01T06:42:33;7.20;;;3.10;;
48014;SDS011;33780;51.034;7.120;2023-03-01T06:45:01;7.00;;;3.35;;
48014;SDS011;33780;51.034;7.120;2023-03-01T06:47:26;7.30;;;3.40;;
48014;SDS011;33780;51.034;7.120;2023-03-01T06:49:52;6.82;;;3.00;;
48014;SDS011;33780;51.034;7.120;2023-03-01T06:52:17;7.43;;;2.83;;
48014;SDS011;33780;51.034;7.120;2023-03-01T06:54:43;7.35;;;3.22;;
48014;SDS011;33780;51.034;7.120;2023-03-01T06:57:08;9.75;;;2.97;;
48014;SDS011;33780;51.034;7.120;2023-03-01T06:59:34;8.20;;;3.55;;
48014;SDS011;33780;51.034;7.120;2023-03-01T07:01:59;5.55;;;2.60;;
48014;SDS011;33780;51.034;7.120;2023-03-01T07:04:24;7.15;;;3.25;;
48014;SDS011;33780;51.034;7.120;2023-03-01T07:06:53;5.30;;;2.47;;
48014;SDS011;33780;51.034;7.120;2023-03-01T07:09:20;7.88;;;3.45;;
48014;SDS011;33780;51.034;7.120;2023-03-01T07:11:47;7.53;;;3.47;;
48014;SDS011;33780;51.034;7.120;2023-03-01T07:14:12;7.88;;;3.55;;
48014;SDS011;33780;51.034;7.120;2023-03-01T07:16:38;6.55;;;2.83;;
48014;SDS011;33780;51.034;7.120;2023-03-01T07:19:03;6.63;;;3.15;;
48014;SDS011;33780;51.034;7.120;2023-03-01T07:21:30;7.40;;;3.45;;
48014;SDS011;33780;51.034;7.120;2023-03-01T07:23:55;7.55;;;3.22;;
48014;SDS011;33780;51.034;7.120;2023-03-01T07:26:21;6.82;;;3.17;;
48014;SDS011;33780;51.034;7.120;2023-03-01T07:28:46;6.65;;;2.70;;
48014;SDS011;33780;51.034;7.120;2023-03-01T07:31:12;7.70;;;3.47;;
48014;SDS011;33780;51.034;7.120;2023-03-01T07:33:37;6.55;;;3.35;;
48014;SDS011;33780;51.034;7.120;2023-03-01T07:36:05;8.32;;;3.50;;
48014;SDS011;33780;51.034;7.120;2023-03-01T07:38:34;7.05;;;3.25;;
48014;SDS011;33780;51.034;7.120;2023-03-01T07:41:00;10.45;;;3.75;;
48014;SDS011;33780;51.034;7.120;2023-03-01T07:43:27;5.88;;;2.65;;
48014;SDS011;33780;51.034;7.120;2023-03-01T07:45:53;8.10;;;3.10;;
48014;SDS011;33780;51.034;7.120;2023-03-01T07:48:18;6.32;;;3.17;;
48014;SDS011;33780;51.034;7.120;2023-03-01T07:50:44;10.30;;;3.55;;
48014;SDS011;33780;51.034;7.120;2023-03-01T07:53:09;8.68;;;3.38;;
48014;SDS011;33780;51.034;7.120;2023-03-01T07:55:35;8.20;;;3.67;;
48014;SDS011;33780;51.034;7.120;2023-03-01T07:58:01;8.13;;;4.10;;
48014;SDS011;33780;51.034;7.120;2023-03-01T08:00:26;10.25;;;4.10;;
48014;SDS011;33780;51.034;7.120;2023-03-01T08:02:51;11.90;;;4.43;;
48014;SDS011;33780;51.034;7.120;2023-03-01T08:05:17;8.55;;;3.90;;
48014;SDS011;33780;51.034;7.120;2023-03-01T08:07:42;9.35;;;3.75;;
48014;SDS011;33780;51.034;7.120;2023-03-01T08:10:08;7.95;;;3.97;;
48014;SDS011;33780;51.034;7.120;2023-03-01T08:12:34;9.18;;;3.85;;
48014;SDS011;33780;51.034;7.120;2023-03-01T08:14:59;8.77;;;4.43;;
48014;SDS011;33780;51.034;7.120;2023-03-01T08:17:25;13.27;;;4.10;;
48014;SDS011;33780;51.034;7.120;2023-03-01T08:19:50;11.63;;;4.55;;
48014;SDS011;33780;51.034;7.120;2023-03-01T08:22:16;12.85;;;4.25;;
48014;SDS011;33780;51.034;7.120;2023-03-01T08:24:41;8.80;;;3.70;;
48014;SDS011;33780;51.034;7.120;2023-03-01T08:27:06;11.23;;;4.57;;
48014;SDS011;33780;51.034;7.120;2023-03-01T08:29:32;10.55;;;4.22;;
48014;SDS011;33780;51.034;7.120;2023-03-01T08:32:01;8.60;;;4.07;;
48014;SDS011;33780;51.034;7.120;2023-03-01T08:34:26;9.02;;;3.72;;
48014;SDS011;33780;51.034;7.120;2023-03-01T08:36:55;8.88;;;4.28;;
48014;SDS011;33780;51.034;7.120;2023-03-01T08:39:26;10.40;;;4.43;;
48014;SDS011;33780;51.034;7.120;2023-03-01T08:41:52;9.45;;;4.15;;
48014;SDS011;33780;51.034;7.120;2023-03-01T08:44:20;10.20;;;4.45;;
48014;SDS011;33780;51.034;7.120;2023-03-01T08:46:46;8.05;;;3.88;;
48014;SDS011;33780;51.034;7.120;2023-03-01T08:49:21;7.72;;;3.85;;
48014;SDS011;33780;51.034;7.120;2023-03-01T08:51:47;8.15;;;3.67;;
48014;SDS011;33780;51.034;7.120;2023-03-01T08:54:20;9.02;;;3.90;;
48014;SDS011;33780;51.034;7.120;2023-03-01T08:56:49;11.50;;;4.55;;
48014;SDS011;33780;51.034;7.120;2023-03-01T08:59:15;10.20;;;4.00;;
48014;SDS011;33780;51.034;7.120;2023-03-01T09:01:46;8.15;;;3.90;;
48014;SDS011;33780;51.034;7.120;2023-03-01T09:04:15;9.25;;;4.00;;
48014;SDS011;33780;51.034;7.120;2023-03-01T09:06:41;9.85;;;4.18;;
48014;SDS011;33780;51.034;7.120;2023-03-01T09:09:14;9.63;;;4.13;;
48014;SDS011;33780;51.034;7.120;2023-03-01T09:11:44;9.60;;;4.13;;
48014;SDS011;33780;51.034;7.120;2023-03-01T09:14:15;9.02;;;4.55;;
48014;SDS011;33780;51.034;7.120;2023-03-01T09:16:49;12.63;;;4.25;;
48014;SDS011;33780;51.034;7.120;2023-03-01T09:19:19;7.97;;;3.60;;
48014;SDS011;33780;51.034;7.120;2023-03-01T09:21:50;10.30;;;3.60;;
48014;SDS011;33780;51.034;7.120;2023-03-01T09:24:22;8.13;;;3.53;;
48014;SDS011;33780;51.034;7.120;2023-03-01T09:26:52;9.55;;;3.75;;
48014;SDS011;33780;51.034;7.120;2023-03-01T09:29:22;9.02;;;4.18;;
48014;SDS011;33780;51.034;7.120;2023-03-01T09:31:47;9.80;;;4.10;;
48014;SDS011;33780;51.034;7.120;2023-03-01T09:34:13;7.75;;;3.70;;
48014;SDS011;33780;51.034;7.120;2023-03-01T09:36:41;7.72;;;4.28;;
48014;SDS011;33780;51.034;7.120;2023-03-01T09:39:24;7.32;;;3.63;;
48014;SDS011;33780;51.034;7.120;2023-03-01T09:42:33;9.00;;;4.00;;
48014;SDS011;33780;51.034;7.120;2023-03-01T09:45:05;14.00;;;4.10;;
48014;SDS011;33780;51.034;7.120;2023-03-01T09:47:36;12.75;;;4.22;;
48014;SDS011;33780;51.034;7.120;2023-03-01T09:50:06;8.20;;;3.85;;
48014;SDS011;33780;51.034;7.120;2023-03-01T09:52:41;8.65;;;3.70;;
48014;SDS011;33780;51.034;7.120;2023-03-01T09:55:12;9.05;;;3.92;;
48014;SDS011;33780;51.034;7.120;2023-03-01T09:57:55;8.77;;;3.92;;
48014;SDS011;33780;51.034;7.120;2023-03-01T10:00:46;8.18;;;3.70;;
48014;SDS011;33780;51.034;7.120;2023-03-01T10:18:27;10.18;;;4.22;;
48014;SDS011;33780;51.034;7.120;2023-03-01T10:24:24;8.00;;;3.80;;
48014;SDS011;33780;51.034;7.120;2023-03-01T10:26:56;7.20;;;3.33;;
48014;SDS011;33780;51.034;7.120;2023-03-01T10:29:30;7.43;;;3.30;;
48014;SDS011;33780;51.034;7.120;2023-03-01T10:32:02;8.65;;;3.70;;
48014;SDS011;33780;51.034;7.120;2023-03-01T10:34:32;9.63;;;3.72;;
48014;SDS011;33780;51.034;7.120;2023-03-01T10:37:14;5.10;;;3.20;;
48014;SDS011;33780;51.034;7.120;2023-03-01T10:42:38;9.35;;;3.83;;
48014;SDS011;33780;51.034;7.120;2023-03-01T10:50:32;7.75;;;2.90;;
48014;SDS011;33780;51.034;7.120;2023-03-01T10:52:59;9.90;;;3.60;;
48014;SDS011;33780;51.034;7.120;2023-03-01T10:55:27;8.50;;;3.80;;
48014;SDS011;33780;51.034;7.120;2023-03-01T11:03:32;7.85;;;4.00;;
48014;SDS011;33780;51.034;7.120;2023-03-01T11:08:31;10.73;;;3.53;;
48014;SDS011;33780;51.034;7.120;2023-03-01T11:11:04;10.35;;;4.50;;
48014;SDS011;33780;51.034;7.120;2023-03-01T11:13:50;8.25;;;3.40;;
48014;SDS011;33780;51.034;7.120;2023-03-01T11:16:29;5.90;;;2.53;;
48014;SDS011;33780;51.034;7.120;2023-03-01T11:18:59;8.98;;;3.65;;
48014;SDS011;33780;51.034;7.120;2023-03-01T11:21:34;7.35;;;3.55;;
48014;SDS011;33780;51.034;7.120;2023-03-01T11:24:11;7.05;;;3.40;;
48014;SDS011;33780;51.034;7.120;2023-03-01T11:26:41;9.25;;;3.80;;
48014;SDS011;33780;51.034;7.120;2023-03-01T11:29:33;8.73;;;3.30;;
48014;SDS011;33780;51.034;7.120;2023-03-01T11:32:11;7.50;;;3.20;;
48014;SDS011;33780;51.034;7.120;2023-03-01T11:40:24;9.35;;;3.42;;
48014;SDS011;33780;51.034;7.120;2023-03-01T11:48:56;8.50;;;3.72;;
48014;SDS011;33780;51.034;7.120;2023-03-01T12:15:17;8.90;;;2.80;;
48014;SDS011;33780;51.034;7.120;2023-03-01T12:32:17;7.75;;;3.13;;
48014;SDS011;33780;51.034;7.120;2023-03-01T12:49:52;7.35;;;3.20;;
48014;SDS011;33780;51.034;7.120;2023-03-01T12:52:33;7.90;;;2.90;;
48014;SDS011;33780;51.034;7.120;2023-03-01T12:55:06;5.00;;;2.67;;
48014;SDS011;33780;51.034;7.120;2023-03-01T12:57:46;7.65;;;2.97;;
48014;SDS011;33780;51.034;7.120;2023-03-01T13:03:10;6.75;;;3.33;;
48014;SDS011;33780;51.034;7.120;2023-03-01T13:05:56;8.95;;;2.92;;
48014;SDS011;33780;51.034;7.120;2023-03-01T13:11:29;7.38;;;3.13;;
48014;SDS011;33780;51.034;7.120;2023-03-01T13:17:29;7.32;;;2.90;;
48014;SDS011;33780;51.034;7.120;2023-03-01T13:20:15;7.18;;;3.30;;
48014;SDS011;33780;51.034;7.120;2023-03-01T13:22:59;6.88;;;2.50;;
48014;SDS011;33780;51.034;7.120;2023-03-01T13:31:01;6.30;;;2.97;;
48014;SDS011;33780;51.034;7.120;2023-03-01T13:35:54;7.03;;;3.07;;
48014;SDS011;33780;51.034;7.120;2023-03-01T13:41:17;4.78;;;2.53;;
48014;SDS011;33780;51.034;7.120;2023-03-01T13:44:02;6.20;;;2.53;;
48014;SDS011;33780;51.034;7.120;2023-03-01T13:46:50;5.60;;;2.45;;
48014;SDS011;33780;51.034;7.120;2023-03-01T13:49:17;6.20;;;3.00;;
48014;SDS011;33780;51.034;7.120;2023-03-01T13:51:46;7.53;;;2.90;;
48014;SDS011;33780;51.034;7.120;2023-03-01T13:54:13;7.03;;;2.95;;
48014;SDS011;33780;51.034;7.120;2023-03-01T13:56:40;7.03;;;2.95;;
48014;SDS011;33780;51.034;7.120;2023-03-01T13:59:12;7.97;;;2.80;;
48014;SDS011;33780;51.034;7.120;2023-03-01T14:01:39;6.80;;;2.70;;
48014;SDS011;33780;51.034;7.120;2023-03-01T14:04:18;6.50;;;2.95;;
48014;SDS011;33780;51.034;7.120;2023-03-01T14:06:49;6.88;;;2.63;;
48014;SDS011;33780;51.034;7.120;2023-03-01T14:09:32;7.72;;;3.50;;
48014;SDS011;33780;51.034;7.120;2023-03-01T14:17:50;6.68;;;2.80;;
48014;SDS011;33780;51.034;7.120;2023-03-01T14:20:39;7.82;;;3.10;;
48014;SDS011;33780;51.034;7.120;2023-03-01T14:23:11;7.85;;;3.42;;
48014;SDS011;33780;51.034;7.120;2023-03-01T14:25:59;6.28;;;3.03;;
48014;SDS011;33780;51.034;7.120;2023-03-01T14:28:26;6.50;;;3.28;;
48014;SDS011;33780;51.034;7.120;2023-03-01T14:30:59;7.93;;;3.40;;
48014;SDS011;33780;51.034;7.120;2023-03-01T14:33:56;7.43;;;3.38;;
48014;SDS011;33780;51.034;7.120;2023-03-01T14:36:31;7.40;;;2.92;;
48014;SDS011;33780;51.034;7.120;2023-03-01T14:39:20;7.50;;;3.30;;
48014;SDS011;33780;51.034;7.120;2023-03-01T14:41:50;7.00;;;3.05;;
48014;SDS011;33780;51.034;7.120;2023-03-01T14:44:18;7.88;;;3.15;;
48014;SDS011;33780;51.034;7.120;2023-03-01T14:46:51;6.22;;;3.08;;
48014;SDS011;33780;51.034;7.120;2023-03-01T14:49:25;6.40;;;3.25;;
48014;SDS011;33780;51.034;7.120;2023-03-01T14:52:04;8.48;;;3.20;;
48014;SDS011;33780;51.034;7.120;2023-03-01T14:57:16;8.20;;;2.92;;
48014;SDS011;33780;51.034;7.120;2023-03-01T14:59:49;5.88;;;2.92;;
48014;SDS011;33780;51.034;7.120;2023-03-01T15:02:19;6.22;;;2.88;;
48014;SDS011;33780;51.034;7.120;2023-03-01T15:04:49;6.72;;;3.10;;
48014;SDS011;33780;51.034;7.120;2023-03-01T15:07:17;6.80;;;2.97;;
48014;SDS011;33780;51.034;7.120;2023-03-01T15:09:43;6.68;;;3.40;;
48014;SDS011;33780;51.034;7.120;2023-03-01T15:14:54;6.15;;;2.78;;
48014;SDS011;33780;51.034;7.120;2023-03-01T15:19:52;6.90;;;2.63;;
48014;SDS011;33780;51.034;7.120;2023-03-01T15:22:22;6.57;;;2.80;;
48014;SDS011;33780;51.034;7.120;2023-03-01T15:24:50;6.18;;;2.72;;
48014;SDS011;33780;51.034;7.120;2023-03-01T15:27:17;8.38;;;2.85;;
48014;SDS011;33780;51.034;7.120;2023-03-01T15:29:55;5.80;;;2.80;;
48014;SDS011;33780;51.034;7.120;2023-03-01T15:32:26;7.18;;;3.03;;
48014;SDS011;33780;51.034;7.120;2023-03-01T15:34:57;6.50;;;3.25;;
48014;SDS011;33780;51.034;7.120;2023-03-01T15:37:37;6.25;;;3.08;;
48014;SDS011;33780;51.034;7.120;2023-03-01T15:43:01;6.50;;;2.67;;
48014;SDS011;33780;51.034;7.120;2023-03-01T15:45:29;6.47;;;2.65;;
48014;SDS011;33780;51.034;7.120;2023-03-01T15:48:00;6.47;;;2.90;;
48014;SDS011;33780;51.034;7.120;2023-03-01T15:50:31;7.32;;;2.70;;
48014;SDS011;33780;51.034;7.120;2023-03-01T15:53:01;8.60;;;2.90;;
48014;SDS011;33780;51.034;7.120;2023-03-01T15:55:41;7.00;;;3.20;;
48014;SDS011;33780;51.034;7.120;2023-03-01T15:58:13;7.80;;;2.75;;
48014;SDS011;33780;51.034;7.120;2023-03-01T16:00:42;5.75;;;2.45;;
48014;SDS011;33780;51.034;7.120;2023-03-01T16:03:10;4.78;;;2.53;;
48014;SDS011;33780;51.034;7.120;2023-03-01T16:05:39;6.57;;;2.63;;
48014;SDS011;33780;51.034;7.120;2023-03-01T16:08:08;5.22;;;2.58;;
48014;SDS011;33780;51.034;7.120;2023-03-01T16:10:34;6.03;;;2.55;;
48014;SDS011;33780;51.034;7.120;2023-03-01T16:13:00;6.10;;;2.88;;
48014;SDS011;33780;51.034;7.120;2023-03-01T16:15:27;6.22;;;2.80;;
48014;SDS011;33780;51.034;7.120;2023-03-01T16:17:58;5.57;;;2.47;;
48014;SDS011;33780;51.034;7.120;2023-03-01T16:20:24;7.32;;;2.42;;
48014;SDS011;33780;51.034;7.120;2023-03-01T16:22:50;5.03;;;2.72;;
48014;SDS011;33780;51.034;7.120;2023-03-01T16:25:17;5.75;;;2.63;;
48014;SDS011;33780;51.034;7.120;2023-03-01T16:27:44;6.45;;;2.90;;
48014;SDS011;33780;51.034;7.120;2023-03-01T16:30:11;5.82;;;2.20;;
48014;SDS011;33780;51.034;7.120;2023-03-01T16:32:46;5.45;;;2.35;;
48014;SDS011;33780;51.034;7.120;2023-03-01T16:35:16;5.60;;;2.58;;
48014;SDS011;33780;51.034;7.120;2023-03-01T16:37:45;4.85;;;2.30;;
48014;SDS011;33780;51.034;7.120;2023-03-01T16:40:19;6.03;;;2.60;;
48014;SDS011;33780;51.034;7.120;2023-03-01T16:42:55;6.85;;;2.92;;
48014;SDS011;33780;51.034;7.120;2023-03-01T16:45:24;8.10;;;2.90;;
48014;SDS011;33780;51.034;7.120;2023-03-01T16:47:50;5.50;;;2.75;;
48014;SDS011;33780;51.034;7.120;2023-03-01T16:50:16;5.88;;;2.40;;
48014;SDS011;33780;51.034;7.120;2023-03-01T16:52:42;7.07;;;2.53;;
48014;SDS011;33780;51.034;7.120;2023-03-01T16:55:10;4.60;;;2.20;;
48014;SDS011;33780;51.034;7.120;2023-03-01T16:57:39;5.65;;;2.50;;
48014;SDS011;33780;51.034;7.120;2023-03-01T17:00:06;8.23;;;3.03;;
48014;SDS011;33780;51.034;7.120;2023-03-01T17:02:34;7.72;;;2.80;;
48014;SDS011;33780;51.034;7.120;2023-03-01T17:05:00;4.80;;;2.67;;
48014;SDS011;33780;51.034;7.120;2023-03-01T17:07:25;4.75;;;2.25;;
48014;SDS011;33780;51.034;7.120;2023-03-01T17:09:51;5.85;;;2.45;;
48014;SDS011;33780;51.034;7.120;2023-03-01T17:12:16;5.18;;;2.70;;
48014;SDS011;33780;51.034;7.120;2023-03-01T17:14:42;5.35;;;2.10;;
48014;SDS011;33780;51.034;7.120;2023-03-01T17:17:11;4.93;;;2.30;;
48014;SDS011;33780;51.034;7.120;2023-03-01T17:20:05;5.05;;;2.10;;